Merrifield, Minnesota
Current Conditions -  °F | °C
As of 12:53 AM on Sunday 21 Dec 2014 (Local Time) from KBRD Reporting Station
Haze Haze  
Wind Chill: 19°   Ceiling: 600
Heat Index: 28°   Visibility: 5mi
Dew Point: 26°   Wind: 9mph
Humidity: 92%   Direction: 170°S
Pressure: 29.98"   Gusts: NA
Location:  46.46°N, 94.17°W
Report Text: KBRD 210653Z AUTO 17008KT 5SM BR OVC006 M02/M03 A2998 RMK AO2 SLP168 T10221033
Loading
Personal Weather Stations






























Interactive Weather Map New forecast layout! Learn more

10-Day Weather Forecast

Advertisements
Track Severe Weather on mobile